createdAt,value
2022-09-28T00:01:57.176Z,12.40
2022-09-28T00:04:25.711Z,12.40
2022-09-28T00:06:55.636Z,12.40
2022-09-28T00:09:23.988Z,12.40
2022-09-28T00:11:52.655Z,12.40
2022-09-28T00:14:21.808Z,12.40
2022-09-28T00:16:50.362Z,12.30
2022-09-28T00:19:18.944Z,12.30
2022-09-28T00:21:48.012Z,12.30
2022-09-28T00:24:18.998Z,12.30
2022-09-28T00:26:49.900Z,12.30
2022-09-28T00:29:22.379Z,12.30
2022-09-28T00:31:53.361Z,12.30
2022-09-28T00:34:22.254Z,12.30
2022-09-28T00:36:50.710Z,12.20
2022-09-28T00:39:20.533Z,12.30
2022-09-28T00:41:49.409Z,12.30
2022-09-28T00:44:48.821Z,12.30
2022-09-28T00:47:49.898Z,12.20
2022-09-28T00:50:24.990Z,12.30
2022-09-28T00:52:58.411Z,12.30
2022-09-28T00:55:33.432Z,12.30
2022-09-28T00:58:04.897Z,12.30
2022-09-28T01:00:33.418Z,12.20
2022-09-28T01:03:02.002Z,12.30
2022-09-28T01:05:31.485Z,12.30
2022-09-28T01:07:59.918Z,12.20
2022-09-28T01:10:31.434Z,12.20
2022-09-28T01:13:00.520Z,12.20
2022-09-28T01:15:30.473Z,12.10
2022-09-28T01:18:12.824Z,12.10
2022-09-28T01:21:02.157Z,12.10
2022-09-28T01:24:09.669Z,12.10
2022-09-28T01:26:56.894Z,12.00
2022-09-28T01:29:39.155Z,12.00
2022-09-28T01:32:16.259Z,12.00
2022-09-28T01:34:52.459Z,12.00
2022-09-28T01:37:23.188Z,12.00
2022-09-28T01:39:54.107Z,11.90
2022-09-28T01:42:29.124Z,11.90
2022-09-28T01:45:03.269Z,12.00
2022-09-28T01:47:36.332Z,12.00
2022-09-28T01:50:09.625Z,12.00
2022-09-28T01:52:43.125Z,12.00
2022-09-28T01:55:15.272Z,12.00
2022-09-28T01:57:51.467Z,12.10
2022-09-28T02:00:21.714Z,12.10
2022-09-28T02:02:56.253Z,12.10
2022-09-28T02:05:29.426Z,12.10
2022-09-28T02:08:03.434Z,12.10
2022-09-28T02:10:36.566Z,12.10
2022-09-28T02:13:12.358Z,12.10
2022-09-28T02:15:47.150Z,12.10
2022-09-28T02:18:16.359Z,12.10
2022-09-28T02:20:49.494Z,12.10
2022-09-28T02:23:20.688Z,12.20
2022-09-28T02:25:52.651Z,12.10
2022-09-28T02:28:22.698Z,12.10
2022-09-28T02:30:51.192Z,12.10
2022-09-28T02:33:24.546Z,12.10
2022-09-28T02:35:53.121Z,12.00
2022-09-28T02:38:21.506Z,12.00
2022-09-28T02:40:58.817Z,11.90
2022-09-28T02:43:39.366Z,11.80
2022-09-28T02:46:18.497Z,11.80
2022-09-28T02:49:17.253Z,11.80
2022-09-28T02:52:01.012Z,11.80
2022-09-28T02:54:53.402Z,11.80
2022-09-28T02:57:34.471Z,11.80
2022-09-28T03:00:10.239Z,11.90
2022-09-28T03:02:47.635Z,11.90
2022-09-28T03:05:21.339Z,11.90
2022-09-28T03:07:58.314Z,11.90
2022-09-28T03:10:34.941Z,11.90
2022-09-28T03:13:04.776Z,11.90
2022-09-28T03:15:36.524Z,11.80
2022-09-28T03:18:05.512Z,11.80
2022-09-28T03:20:34.868Z,11.70
2022-09-28T03:25:51.846Z,11.60
2022-09-28T03:28:21.285Z,11.50
2022-09-28T03:30:51.290Z,11.40
2022-09-28T03:33:20.356Z,11.40
2022-09-28T03:35:50.388Z,11.30
2022-09-28T03:38:19.162Z,11.20
2022-09-28T03:40:54.923Z,11.20
2022-09-28T03:43:23.623Z,11.10
2022-09-28T03:45:58.164Z,11.10
2022-09-28T03:48:32.152Z,11.00
2022-09-28T03:51:03.804Z,11.00
2022-09-28T03:53:33.701Z,11.00
2022-09-28T03:56:05.572Z,10.90
2022-09-28T03:58:34.349Z,10.90
2022-09-28T04:01:06.188Z,10.80
2022-09-28T04:03:34.813Z,10.80
2022-09-28T04:06:03.411Z,10.70
2022-09-28T04:08:31.941Z,10.60
2022-09-28T04:11:01.517Z,10.60
2022-09-28T04:13:30.969Z,10.50
2022-09-28T04:16:01.092Z,10.50
2022-09-28T04:18:31.616Z,10.40
2022-09-28T04:21:03.609Z,10.40
2022-09-28T04:23:32.373Z,10.40
2022-09-28T04:26:00.791Z,10.30
2022-09-28T04:28:47.169Z,10.30
2022-09-28T04:31:19.583Z,10.30
2022-09-28T04:33:49.584Z,10.20
2022-09-28T04:36:19.761Z,10.10
2022-09-28T04:38:53.115Z,10.20
2022-09-28T04:41:23.280Z,10.20
2022-09-28T04:43:52.020Z,10.10
2022-09-28T04:46:21.264Z,10.10
2022-09-28T04:48:51.207Z,10.10
2022-09-28T04:51:19.580Z,10.00
2022-09-28T04:53:48.042Z,10.00
2022-09-28T04:56:18.026Z,10.00
2022-09-28T04:58:50.417Z,10.00
2022-09-28T05:01:23.614Z,10.00
2022-09-28T05:03:53.690Z,10.00
2022-09-28T05:06:23.006Z,10.00
2022-09-28T05:08:51.412Z,9.90
2022-09-28T05:11:21.398Z,10.00
2022-09-28T05:13:50.492Z,10.00
2022-09-28T05:16:20.584Z,10.00
2022-09-28T05:18:49.036Z,10.00
2022-09-28T05:21:20.210Z,10.00
2022-09-28T05:23:49.203Z,10.00
2022-09-28T05:26:17.772Z,10.00
2022-09-28T05:28:46.541Z,10.10
2022-09-28T05:31:15.235Z,10.10
2022-09-28T05:33:43.658Z,10.10
2022-09-28T05:36:12.687Z,10.20
2022-09-28T05:38:42.416Z,10.20
2022-09-28T05:41:10.944Z,10.30
2022-09-28T05:43:39.737Z,10.40
2022-09-28T05:46:08.194Z,10.40
2022-09-28T05:48:36.951Z,10.50
2022-09-28T05:51:05.705Z,10.60
2022-09-28T05:53:34.294Z,10.60
2022-09-28T05:56:04.350Z,10.70
2022-09-28T05:58:33.020Z,10.80
2022-09-28T06:01:01.549Z,10.90
2022-09-28T06:03:30.661Z,11.00
2022-09-28T06:06:02.281Z,11.20
2022-09-28T06:08:32.808Z,11.30
2022-09-28T06:11:03.482Z,11.40
2022-09-28T06:13:32.455Z,11.50
2022-09-28T06:16:01.222Z,11.70
2022-09-28T06:18:30.458Z,11.80
2022-09-28T06:20:58.926Z,11.90
2022-09-28T06:23:27.399Z,12.00
2022-09-28T06:25:56.003Z,12.10
2022-09-28T06:28:27.013Z,12.20
2022-09-28T06:30:55.757Z,12.20
2022-09-28T06:33:26.771Z,12.30
2022-09-28T06:35:55.207Z,12.40
2022-09-28T06:38:23.598Z,12.40
2022-09-28T06:40:52.247Z,12.50
2022-09-28T06:43:21.043Z,12.50
2022-09-28T06:45:54.445Z,12.50
2022-09-28T06:48:23.164Z,12.50
2022-09-28T06:50:51.894Z,12.50
2022-09-28T06:53:20.745Z,12.50
2022-09-28T06:58:12.669Z,12.60
2022-09-28T07:00:42.817Z,12.70
2022-09-28T07:03:14.735Z,12.80
2022-09-28T07:05:45.289Z,12.90
2022-09-28T07:08:15.912Z,13.00
2022-09-28T07:10:45.605Z,13.10
2022-09-28T07:13:42.282Z,13.20
2022-09-28T07:16:05.611Z,13.40
2022-09-28T07:18:34.157Z,13.60
2022-09-28T07:21:04.172Z,13.70
2022-09-28T07:23:36.496Z,13.90
2022-09-28T07:26:09.332Z,14.10
2022-09-28T07:28:41.513Z,14.20
2022-09-28T07:31:11.091Z,14.50
2022-09-28T07:33:39.838Z,14.50
2022-09-28T07:36:08.842Z,14.60
2022-09-28T07:38:38.291Z,14.60
2022-09-28T07:41:11.947Z,14.70
2022-09-28T07:43:41.895Z,14.80
2022-09-28T07:46:12.025Z,14.90
2022-09-28T07:48:42.199Z,15.10
2022-09-28T07:51:11.315Z,15.30
2022-09-28T07:53:40.132Z,15.40
2022-09-28T07:56:09.413Z,15.60
2022-09-28T07:58:39.670Z,15.70
2022-09-28T08:01:12.058Z,15.70
2022-09-28T08:03:45.268Z,15.60
2022-09-28T08:06:15.239Z,15.50
2022-09-28T08:08:44.731Z,15.40
2022-09-28T08:11:15.146Z,15.30
2022-09-28T08:13:45.593Z,15.20
2022-09-28T08:16:15.564Z,15.20
2022-09-28T08:18:44.088Z,15.10
2022-09-28T08:21:30.553Z,15.00
2022-09-28T08:23:58.960Z,14.90
2022-09-28T08:26:29.049Z,14.80
2022-09-28T08:28:57.458Z,14.70
2022-09-28T08:31:27.325Z,14.70
2022-09-28T08:33:56.056Z,14.80
2022-09-28T08:36:24.522Z,15.00
2022-09-28T08:38:53.107Z,15.30
2022-09-28T08:41:33.186Z,15.60
2022-09-28T08:44:12.107Z,16.10
2022-09-28T08:46:44.750Z,16.40
2022-09-28T08:49:25.404Z,16.60
2022-09-28T08:51:59.848Z,16.50
2022-09-28T08:54:46.025Z,16.40
2022-09-28T08:57:18.624Z,16.40
2022-09-28T08:59:51.411Z,16.50
2022-09-28T09:02:25.534Z,16.60
2022-09-28T09:04:54.488Z,16.60
2022-09-28T09:07:51.342Z,16.70
2022-09-28T09:10:44.626Z,16.90
2022-09-28T09:13:32.446Z,17.30
2022-09-28T09:16:08.538Z,17.70
2022-09-28T09:18:44.295Z,17.90
2022-09-28T09:21:22.519Z,17.80
2022-09-28T09:23:56.419Z,17.80
2022-09-28T09:26:39.527Z,17.80
2022-09-28T09:29:20.795Z,17.70
2022-09-28T09:32:04.489Z,17.70
2022-09-28T09:35:00.779Z,17.60
2022-09-28T09:37:47.066Z,17.40
2022-09-28T09:40:39.251Z,17.50
2022-09-28T09:43:40.326Z,17.50
2022-09-28T09:46:17.948Z,17.50
2022-09-28T09:48:54.154Z,17.60
2022-09-28T09:51:34.451Z,17.60
2022-09-28T09:54:07.288Z,17.50
2022-09-28T09:56:41.549Z,17.50
2022-09-28T09:59:15.292Z,17.50
2022-09-28T10:01:44.109Z,17.50
2022-09-28T10:04:19.002Z,17.50
2022-09-28T10:06:50.552Z,17.50
2022-09-28T10:09:25.065Z,17.50
2022-09-28T10:11:54.513Z,17.50
2022-09-28T10:14:24.528Z,17.50
2022-09-28T10:16:54.632Z,17.50
2022-09-28T10:19:31.705Z,17.60
2022-09-28T10:22:05.081Z,17.60
2022-09-28T10:24:36.843Z,17.60
2022-09-28T10:27:08.761Z,17.80
2022-09-28T10:29:45.388Z,17.90
2022-09-28T10:32:23.273Z,18.10
2022-09-28T10:34:52.746Z,18.30
2022-09-28T10:37:24.366Z,18.30
2022-09-28T10:39:54.909Z,18.30
2022-09-28T10:42:27.663Z,18.10
2022-09-28T10:45:00.594Z,18.00
2022-09-28T10:47:32.661Z,17.90
2022-09-28T10:50:01.664Z,17.90
2022-09-28T10:52:38.168Z,17.90
2022-09-28T10:55:32.489Z,17.90
2022-09-28T10:58:01.561Z,17.90
2022-09-28T11:00:41.239Z,18.00
2022-09-28T11:03:20.508Z,18.00
2022-09-28T11:06:00.973Z,18.00
2022-09-28T11:08:33.917Z,17.90
2022-09-28T11:11:04.972Z,17.90
2022-09-28T11:13:43.373Z,17.90
2022-09-28T11:16:28.609Z,17.80
2022-09-28T11:18:58.427Z,17.70
2022-09-28T11:21:31.196Z,17.60
2022-09-28T11:24:06.484Z,17.60
2022-09-28T11:26:43.348Z,17.50
2022-09-28T11:29:31.907Z,17.50
2022-09-28T11:32:03.353Z,17.50
2022-09-28T11:34:57.485Z,17.40
2022-09-28T11:37:40.598Z,17.30
2022-09-28T11:40:23.963Z,17.20
2022-09-28T11:45:48.517Z,16.90
2022-09-28T11:48:20.233Z,16.80
2022-09-28T11:50:51.681Z,16.80
2022-09-28T11:53:26.228Z,16.70
2022-09-28T11:56:03.212Z,16.70
2022-09-28T11:58:38.508Z,16.70
2022-09-28T12:01:19.027Z,16.80
2022-09-28T12:03:53.640Z,16.80
2022-09-28T12:06:28.503Z,16.90
2022-09-28T12:09:09.405Z,17.00
2022-09-28T12:11:45.149Z,17.10
2022-09-28T12:14:24.507Z,17.20
2022-09-28T12:17:06.969Z,17.20
2022-09-28T12:19:42.542Z,17.10
2022-09-28T12:22:17.252Z,17.20
2022-09-28T12:24:48.874Z,17.10
2022-09-28T12:27:24.791Z,17.20
2022-09-28T12:29:57.880Z,17.20
2022-09-28T12:32:32.854Z,17.10
2022-09-28T12:35:03.169Z,17.10
2022-09-28T12:37:43.266Z,17.10
2022-09-28T12:40:38.079Z,17.10
2022-09-28T12:43:43.564Z,17.20
2022-09-28T12:46:36.704Z,17.20
2022-09-28T12:52:27.250Z,17.30
2022-09-28T12:55:21.905Z,17.20
2022-09-28T12:57:59.371Z,17.20
2022-09-28T13:00:36.433Z,17.10
2022-09-28T13:03:35.570Z,17.10
2022-09-28T13:06:18.225Z,17.00
2022-09-28T13:09:01.214Z,16.90
2022-09-28T13:11:34.919Z,16.90
2022-09-28T13:14:46.671Z,16.80
2022-09-28T13:17:22.552Z,16.70
2022-09-28T13:19:58.289Z,16.60
2022-09-28T13:22:39.978Z,16.50
2022-09-28T13:25:16.951Z,16.40
2022-09-28T13:27:51.393Z,16.40
2022-09-28T13:30:20.553Z,16.50
2022-09-28T13:32:51.461Z,16.60
2022-09-28T13:35:20.491Z,16.60
2022-09-28T13:38:28.790Z,16.70
2022-09-28T13:41:13.697Z,16.70
2022-09-28T13:44:09.844Z,16.70
2022-09-28T13:46:50.145Z,16.70
2022-09-28T13:49:25.978Z,16.70
2022-09-28T13:52:05.139Z,16.70
2022-09-28T13:54:51.782Z,16.60
2022-09-28T13:57:26.123Z,16.60
2022-09-28T14:00:10.503Z,16.50
2022-09-28T14:02:43.263Z,16.40
2022-09-28T14:05:56.535Z,16.40
2022-09-28T14:08:39.429Z,16.30
2022-09-28T14:11:44.937Z,16.20
2022-09-28T14:14:32.363Z,16.10
2022-09-28T14:17:39.778Z,16.00
2022-09-28T14:20:14.222Z,15.90
2022-09-28T14:23:06.391Z,15.90
2022-09-28T14:25:39.967Z,15.80
2022-09-28T14:28:37.081Z,15.80
2022-09-28T14:31:10.663Z,15.70
2022-09-28T14:33:42.807Z,15.70
2022-09-28T14:36:47.470Z,15.70
2022-09-28T14:39:44.891Z,15.60
2022-09-28T14:42:17.875Z,15.60
2022-09-28T14:45:21.829Z,15.60
2022-09-28T14:48:19.391Z,15.50
2022-09-28T14:50:50.059Z,15.50
2022-09-28T14:53:24.897Z,15.40
2022-09-28T14:55:57.991Z,15.40
2022-09-28T14:58:30.098Z,15.40
2022-09-28T15:01:04.049Z,15.40
2022-09-28T15:03:35.875Z,15.40
2022-09-28T15:06:04.509Z,15.40
2022-09-28T15:08:40.327Z,15.40
2022-09-28T15:11:16.633Z,15.30
2022-09-28T15:13:46.609Z,15.30
2022-09-28T15:16:18.140Z,15.30
2022-09-28T15:19:20.992Z,15.20
2022-09-28T15:21:51.184Z,15.20
2022-09-28T15:24:28.256Z,15.10
2022-09-28T15:26:57.907Z,15.10
2022-09-28T15:29:31.338Z,15.00
2022-09-28T15:32:00.141Z,15.00
2022-09-28T15:34:50.766Z,14.90
2022-09-28T15:37:22.549Z,14.90
2022-09-28T15:39:52.341Z,14.80
2022-09-28T15:42:22.546Z,14.80
2022-09-28T15:45:06.201Z,14.70
2022-09-28T15:47:40.015Z,14.70
2022-09-28T15:50:21.004Z,14.70
2022-09-28T15:52:56.420Z,14.60
2022-09-28T15:55:27.944Z,14.60
2022-09-28T15:58:17.173Z,14.50
2022-09-28T16:00:48.119Z,14.40
2022-09-28T16:03:23.744Z,14.30
2022-09-28T16:06:05.605Z,14.20
2022-09-28T16:08:42.072Z,14.20
2022-09-28T16:11:17.374Z,14.10
2022-09-28T16:13:55.528Z,14.00
2022-09-28T16:16:29.873Z,14.00
2022-09-28T16:19:00.782Z,13.80
2022-09-28T16:21:47.122Z,13.80
2022-09-28T16:24:24.154Z,13.70
2022-09-28T16:26:59.563Z,13.50
2022-09-28T16:29:36.683Z,13.40
2022-09-28T16:32:41.697Z,13.30
2022-09-28T16:35:22.929Z,13.10
2022-09-28T16:38:05.636Z,13.00
2022-09-28T16:40:34.680Z,12.90
2022-09-28T16:43:06.769Z,12.80
2022-09-28T16:45:36.994Z,12.70
2022-09-28T16:48:07.195Z,12.60
2022-09-28T16:50:35.908Z,12.50
2022-09-28T16:53:31.890Z,12.50
2022-09-28T16:56:01.462Z,12.40
2022-09-28T16:58:31.382Z,12.40
2022-09-28T17:01:00.448Z,12.30
2022-09-28T17:03:30.736Z,12.20
2022-09-28T17:05:59.296Z,12.20
2022-09-28T17:08:28.216Z,12.10
2022-09-28T17:11:18.199Z,12.10
2022-09-28T17:13:47.937Z,12.00
2022-09-28T17:16:18.603Z,12.00
2022-09-28T17:18:49.169Z,11.90
2022-09-28T17:21:19.985Z,11.90
2022-09-28T17:23:50.568Z,11.90
2022-09-28T17:26:26.835Z,11.80
2022-09-28T17:28:55.549Z,11.80
2022-09-28T17:31:24.382Z,11.80
2022-09-28T17:33:54.651Z,11.80
2022-09-28T17:36:25.647Z,11.70
2022-09-28T17:38:54.428Z,11.70
2022-09-28T17:41:22.755Z,11.70
2022-09-28T17:43:51.530Z,11.70
2022-09-28T17:46:28.462Z,11.70
2022-09-28T17:49:00.510Z,11.70
2022-09-28T17:51:30.205Z,11.70
2022-09-28T17:54:01.052Z,11.70
2022-09-28T17:56:32.637Z,11.70
2022-09-28T17:59:03.104Z,11.60
2022-09-28T18:01:34.740Z,11.70
2022-09-28T18:04:06.724Z,11.60
2022-09-28T18:06:37.232Z,11.60
2022-09-28T18:09:06.458Z,11.60
2022-09-28T18:11:37.302Z,11.80
2022-09-28T18:14:10.443Z,11.90
2022-09-28T18:16:39.612Z,12.00
2022-09-28T18:19:09.490Z,12.10
2022-09-28T18:21:37.952Z,12.20
2022-09-28T18:24:06.477Z,12.30
2022-09-28T18:26:34.915Z,12.50
2022-09-28T18:29:03.195Z,12.60
2022-09-28T18:31:31.755Z,12.70
2022-09-28T18:34:01.720Z,12.80
2022-09-28T18:36:33.885Z,12.90
2022-09-28T18:39:03.099Z,13.00
2022-09-28T18:41:32.019Z,13.10
2022-09-28T18:44:01.487Z,13.10
2022-09-28T18:46:36.783Z,13.20
2022-09-28T18:49:05.901Z,13.20
2022-09-28T18:51:35.911Z,13.20
2022-09-28T18:54:07.599Z,13.20
2022-09-28T18:56:38.144Z,13.20
2022-09-28T18:59:11.968Z,13.20
2022-09-28T19:01:43.420Z,13.20
2022-09-28T19:04:13.580Z,13.10
2022-09-28T19:06:44.756Z,12.90
2022-09-28T19:09:13.499Z,12.90
2022-09-28T19:11:42.124Z,12.80
2022-09-28T19:14:15.046Z,12.70
2022-09-28T19:16:44.728Z,12.70
2022-09-28T19:19:18.694Z,12.60
2022-09-28T19:21:48.895Z,12.60
2022-09-28T19:24:19.504Z,12.60
2022-09-28T19:26:48.391Z,12.70
2022-09-28T19:29:17.461Z,12.70
2022-09-28T19:31:46.213Z,12.70
2022-09-28T19:34:14.718Z,12.70
2022-09-28T19:36:43.701Z,12.70
2022-09-28T19:39:16.023Z,12.70
2022-09-28T19:41:49.562Z,12.60
2022-09-28T19:44:24.704Z,12.60
2022-09-28T19:46:55.787Z,12.60
2022-09-28T19:49:25.587Z,12.60
2022-09-28T19:52:14.403Z,12.60
2022-09-28T19:54:52.159Z,12.60
2022-09-28T19:57:20.577Z,12.60
2022-09-28T19:59:52.524Z,12.60
2022-09-28T20:02:22.009Z,12.60
2022-09-28T20:04:50.710Z,12.60
2022-09-28T20:07:19.217Z,12.60
2022-09-28T20:09:49.512Z,12.60
2022-09-28T20:12:18.044Z,12.60
2022-09-28T20:14:46.376Z,12.60
2022-09-28T20:17:15.025Z,12.60
2022-09-28T20:19:43.531Z,12.60
2022-09-28T20:22:12.245Z,12.60
2022-09-28T20:24:40.856Z,12.60
2022-09-28T20:27:10.775Z,12.50
2022-09-28T20:29:39.181Z,12.50
2022-09-28T20:32:07.739Z,12.50
2022-09-28T20:34:36.263Z,12.50
2022-09-28T20:37:04.629Z,12.50
2022-09-28T20:39:34.523Z,12.50
2022-09-28T20:42:03.061Z,12.50
2022-09-28T20:44:33.433Z,12.40
2022-09-28T20:47:02.309Z,12.40
2022-09-28T20:49:31.936Z,12.40
2022-09-28T20:52:00.359Z,12.30
2022-09-28T20:54:28.636Z,12.30
2022-09-28T20:56:57.278Z,12.30
2022-09-28T20:59:26.518Z,12.30
2022-09-28T21:01:56.579Z,12.30
2022-09-28T21:04:25.219Z,12.30
2022-09-28T21:06:54.046Z,12.20
2022-09-28T21:09:22.524Z,12.20
2022-09-28T21:11:51.176Z,12.20
2022-09-28T21:14:20.895Z,12.20
2022-09-28T21:16:49.589Z,12.10
2022-09-28T21:19:20.717Z,12.10
2022-09-28T21:21:48.996Z,12.10
2022-09-28T21:24:17.836Z,12.10
2022-09-28T21:26:46.377Z,12.10
2022-09-28T21:29:16.477Z,12.00
2022-09-28T21:31:47.163Z,12.00
2022-09-28T21:34:18.666Z,12.00
2022-09-28T21:36:51.591Z,12.00
2022-09-28T21:39:20.346Z,11.90
2022-09-28T21:41:49.339Z,11.90
2022-09-28T21:44:17.769Z,11.90
2022-09-28T21:46:51.266Z,11.80
2022-09-28T21:49:21.892Z,11.80
2022-09-28T21:51:52.766Z,11.80
2022-09-28T21:54:23.989Z,11.70
2022-09-28T21:56:52.632Z,11.80
2022-09-28T21:59:21.154Z,11.70
2022-09-28T22:01:49.519Z,11.80
2022-09-28T22:04:19.632Z,11.70
2022-09-28T22:06:48.194Z,11.70
2022-09-28T22:09:17.909Z,11.70
2022-09-28T22:11:54.098Z,11.70
2022-09-28T22:14:22.558Z,11.70
2022-09-28T22:17:07.818Z,11.70
2022-09-28T22:19:36.156Z,11.70
2022-09-28T22:22:04.815Z,11.70
2022-09-28T22:24:38.260Z,11.70
2022-09-28T22:27:08.325Z,11.70
2022-09-28T22:29:37.041Z,11.70
2022-09-28T22:32:05.598Z,11.70
2022-09-28T22:34:34.306Z,11.70
2022-09-28T22:37:04.097Z,11.70
2022-09-28T22:39:37.739Z,11.60
2022-09-28T22:42:06.698Z,11.60
2022-09-28T22:44:36.729Z,11.60
2022-09-28T22:47:05.335Z,11.60
2022-09-28T22:49:34.044Z,11.60
2022-09-28T22:52:02.908Z,11.60
2022-09-28T22:54:36.495Z,11.60
2022-09-28T22:57:06.499Z,11.60
2022-09-28T22:59:34.959Z,11.60
2022-09-28T23:02:03.291Z,11.60
2022-09-28T23:04:32.312Z,11.60
2022-09-28T23:07:00.873Z,11.50
2022-09-28T23:09:29.182Z,11.50
2022-09-28T23:11:57.639Z,11.50
2022-09-28T23:14:27.369Z,11.50
2022-09-28T23:16:55.789Z,11.50
2022-09-28T23:19:24.349Z,11.50
2022-09-28T23:21:54.578Z,11.50
2022-09-28T23:24:23.075Z,11.40
2022-09-28T23:26:51.739Z,11.50
2022-09-28T23:29:20.096Z,11.50
2022-09-28T23:31:49.939Z,11.40
2022-09-28T23:34:18.746Z,11.40
2022-09-28T23:36:47.261Z,11.50
2022-09-28T23:39:15.694Z,11.40
2022-09-28T23:41:44.328Z,11.40
2022-09-28T23:44:12.696Z,11.40
2022-09-28T23:46:41.209Z,11.40
2022-09-28T23:49:11.282Z,11.40
2022-09-28T23:51:39.660Z,11.40
2022-09-28T23:54:08.254Z,11.40
2022-09-28T23:56:36.926Z,11.40
2022-09-28T23:59:05.406Z,11.40
